createdAt,value
2022-10-13T00:02:42.931Z,160.65
2022-10-13T00:07:44.809Z,150.38
2022-10-13T00:12:46.809Z,147.93
2022-10-13T00:17:50.088Z,147.65
2022-10-13T00:22:52.103Z,140.18
2022-10-13T00:27:54.229Z,130.95
2022-10-13T00:32:58.293Z,127.93
2022-10-13T00:38:00.702Z,136.63
2022-10-13T00:43:21.863Z,116.65
2022-10-13T00:48:30.341Z,136.68
2022-10-13T00:53:35.734Z,119.53
2022-10-13T00:58:39.129Z,104.72
2022-10-13T01:03:41.202Z,94.90
2022-10-13T01:08:49.616Z,94.03
2022-10-13T01:14:32.042Z,97.55
2022-10-13T01:20:09.025Z,81.68
2022-10-13T01:25:56.282Z,75.50
2022-10-13T01:31:13.784Z,74.47
2022-10-13T01:36:47.957Z,70.45
2022-10-13T01:41:54.149Z,60.78
2022-10-13T01:46:57.239Z,53.10
2022-10-13T01:52:03.400Z,51.43
2022-10-13T01:57:25.337Z,54.88
2022-10-13T02:02:34.341Z,47.67
2022-10-13T02:07:44.805Z,44.38
2022-10-13T02:12:51.442Z,48.47
2022-10-13T02:17:53.747Z,44.83
2022-10-13T02:23:01.330Z,42.25
2022-10-13T02:28:03.964Z,38.47
2022-10-13T02:33:11.270Z,48.78
2022-10-13T02:38:13.543Z,38.60
2022-10-13T02:43:16.560Z,40.53
2022-10-13T02:48:18.429Z,41.10
2022-10-13T02:53:20.603Z,32.65
2022-10-13T02:58:22.556Z,31.40
2022-10-13T03:03:27.341Z,34.53
2022-10-13T03:08:29.448Z,35.22
2022-10-13T03:13:31.601Z,38.47
2022-10-13T03:18:41.261Z,32.60
2022-10-13T03:23:43.141Z,32.25
2022-10-13T03:28:52.211Z,31.40
2022-10-13T03:33:54.641Z,30.05
2022-10-13T03:38:56.524Z,33.70
2022-10-13T03:43:58.446Z,30.50
2022-10-13T03:49:00.368Z,29.08
2022-10-13T03:54:04.757Z,28.52
2022-10-13T03:59:06.734Z,32.35
2022-10-13T04:04:11.056Z,34.28
2022-10-13T04:09:16.805Z,35.03
2022-10-13T04:14:19.685Z,52.25
2022-10-13T04:19:21.534Z,42.47
2022-10-13T04:24:23.596Z,35.47
2022-10-13T04:29:25.549Z,36.22
2022-10-13T04:34:28.959Z,31.40
2022-10-13T04:39:31.480Z,29.20
2022-10-13T04:44:33.394Z,34.58
2022-10-13T04:49:35.326Z,39.10
2022-10-13T04:54:37.360Z,30.60
2022-10-13T04:59:39.229Z,32.45
2022-10-13T05:04:41.372Z,34.83
2022-10-13T05:09:43.210Z,34.72
2022-10-13T05:14:48.025Z,44.67
2022-10-13T05:19:49.993Z,45.30
2022-10-13T05:24:51.964Z,46.15
2022-10-13T05:29:53.862Z,68.57
2022-10-13T05:34:55.873Z,54.15
2022-10-13T05:39:57.809Z,46.20
2022-10-13T05:44:59.668Z,42.10
2022-10-13T05:50:01.554Z,47.40
2022-10-13T05:55:06.037Z,50.20
2022-10-13T06:00:10.707Z,65.93
2022-10-13T06:05:18.870Z,79.55
2022-10-13T06:10:21.072Z,69.78
2022-10-13T06:15:27.782Z,67.90
2022-10-13T06:20:31.345Z,57.88
2022-10-13T06:25:33.489Z,52.42
2022-10-13T06:30:35.408Z,69.00
2022-10-13T06:35:38.086Z,58.30
2022-10-13T06:40:39.919Z,58.00
2022-10-13T06:45:42.021Z,62.38
2022-10-13T06:50:43.862Z,54.55
2022-10-13T06:55:50.184Z,59.05
2022-10-13T07:00:55.146Z,49.83
2022-10-13T07:06:08.148Z,61.90
2022-10-13T07:11:17.345Z,60.58
2022-10-13T07:16:23.641Z,55.33
2022-10-13T07:21:25.609Z,50.15
2022-10-13T07:26:27.473Z,46.80
2022-10-13T07:31:29.457Z,44.38
2022-10-13T07:36:35.493Z,46.17
2022-10-13T07:41:37.935Z,51.28
2022-10-13T07:46:46.241Z,41.90
2022-10-13T07:51:54.144Z,42.83
2022-10-13T07:56:56.579Z,40.42
2022-10-13T08:02:00.465Z,40.25
2022-10-13T08:07:04.205Z,40.53
2022-10-13T08:12:06.284Z,42.75
2022-10-13T08:17:08.185Z,42.38
2022-10-13T08:22:11.469Z,48.85
2022-10-13T08:27:21.931Z,51.83
2022-10-13T08:32:24.513Z,45.65
2022-10-13T08:37:26.640Z,42.97
2022-10-13T08:42:28.616Z,44.92
2022-10-13T08:47:35.746Z,38.60
2022-10-13T08:53:00.608Z,43.75
2022-10-13T08:58:06.765Z,36.53
2022-10-13T09:03:22.800Z,38.67
2022-10-13T09:08:26.870Z,39.60
2022-10-13T09:13:30.214Z,37.35
2022-10-13T09:18:34.015Z,42.42
2022-10-13T09:23:39.519Z,31.70
2022-10-13T09:28:43.898Z,32.50
2022-10-13T09:33:46.923Z,26.73
2022-10-13T09:39:17.113Z,19.63
2022-10-13T09:44:31.317Z,20.15
2022-10-13T09:49:35.789Z,18.85
2022-10-13T09:54:42.009Z,16.23
2022-10-13T10:00:14.524Z,14.63
2022-10-13T10:05:37.689Z,19.67
2022-10-13T10:10:40.982Z,14.27
2022-10-13T10:15:58.266Z,17.67
2022-10-13T10:21:06.805Z,20.92
2022-10-13T10:26:19.412Z,14.50
2022-10-13T10:31:57.960Z,17.13
2022-10-13T10:37:08.821Z,16.02
2022-10-13T10:42:38.637Z,13.88
2022-10-13T10:47:43.456Z,16.60
2022-10-13T10:53:09.205Z,12.80
2022-10-13T10:58:20.576Z,13.10
2022-10-13T11:03:34.504Z,17.88
2022-10-13T11:08:48.073Z,12.27
2022-10-13T11:13:54.382Z,12.70
2022-10-13T11:19:05.830Z,13.45
2022-10-13T11:24:33.710Z,15.65
2022-10-13T11:29:45.613Z,13.55
2022-10-13T11:35:06.786Z,11.38
2022-10-13T11:40:39.699Z,16.30
2022-10-13T11:45:53.644Z,17.20
2022-10-13T11:51:16.427Z,15.40
2022-10-13T11:56:34.672Z,10.60
2022-10-13T12:01:44.219Z,22.88
2022-10-13T12:06:58.297Z,15.80
2022-10-13T12:12:20.597Z,11.88
2022-10-13T12:17:27.681Z,14.70
2022-10-13T12:22:30.116Z,12.43
2022-10-13T12:27:47.648Z,21.73
2022-10-13T12:32:52.029Z,15.10
2022-10-13T12:37:55.640Z,13.82
2022-10-13T12:47:59.732Z,27.33
2022-10-13T12:53:18.659Z,12.75
2022-10-13T12:58:24.536Z,23.75
2022-10-13T13:03:29.139Z,15.32
2022-10-13T13:08:32.077Z,14.20
2022-10-13T13:13:34.781Z,15.67
2022-10-13T13:18:42.618Z,13.13
2022-10-13T13:23:52.778Z,11.05
2022-10-13T13:28:57.129Z,13.98
2022-10-13T13:33:59.016Z,16.45
2022-10-13T13:39:00.916Z,16.08
2022-10-13T13:44:03.283Z,12.18
2022-10-13T13:49:06.284Z,16.40
2022-10-13T13:54:08.293Z,10.50
2022-10-13T13:59:10.162Z,11.48
2022-10-13T14:04:12.040Z,16.38
2022-10-13T14:09:13.933Z,13.40
2022-10-13T14:14:15.941Z,15.38
2022-10-13T14:19:24.302Z,14.07
2022-10-13T14:24:33.322Z,13.75
2022-10-13T14:29:36.997Z,12.93
2022-10-13T14:34:38.871Z,14.07
2022-10-13T14:39:40.749Z,16.55
2022-10-13T14:44:42.600Z,21.67
2022-10-13T14:49:44.523Z,19.35
2022-10-13T14:54:46.536Z,23.17
2022-10-13T14:59:48.852Z,20.15
2022-10-13T15:04:50.813Z,20.58
2022-10-13T15:10:04.273Z,20.77
2022-10-13T15:15:08.210Z,23.63
2022-10-13T15:20:10.496Z,21.85
2022-10-13T15:25:12.555Z,25.13
2022-10-13T15:30:14.424Z,24.88
2022-10-13T15:35:16.369Z,37.83
2022-10-13T15:40:18.241Z,50.78
2022-10-13T15:45:20.128Z,46.45
2022-10-13T15:50:22.013Z,70.90
2022-10-13T15:55:24.040Z,49.00
2022-10-13T16:00:26.277Z,22.88
2022-10-13T16:05:28.429Z,21.80
2022-10-13T16:10:30.461Z,23.38
2022-10-13T16:15:32.378Z,14.32
2022-10-13T16:20:37.636Z,18.85
2022-10-13T16:25:39.952Z,23.05
2022-10-13T16:30:42.510Z,21.35
2022-10-13T16:35:47.679Z,28.15
2022-10-13T16:40:52.391Z,55.08
2022-10-13T16:46:00.514Z,37.05
2022-10-13T16:51:13.992Z,29.75
2022-10-13T16:56:21.172Z,41.15
2022-10-13T17:01:23.208Z,58.28
2022-10-13T17:06:27.945Z,34.63
2022-10-13T17:11:32.047Z,23.80
2022-10-13T17:16:34.468Z,26.58
2022-10-13T17:21:36.859Z,28.33
2022-10-13T17:26:40.562Z,37.08
2022-10-13T17:31:42.445Z,46.47
2022-10-13T17:36:44.347Z,32.40
2022-10-13T17:41:46.234Z,30.63
2022-10-13T17:46:49.976Z,28.45
2022-10-13T17:57:08.377Z,32.17
2022-10-13T18:02:10.510Z,36.88
2022-10-13T18:07:12.609Z,36.95
2022-10-13T18:12:14.498Z,46.38
2022-10-13T18:17:16.518Z,38.17
2022-10-13T18:22:18.606Z,45.47
2022-10-13T18:27:20.715Z,36.25
2022-10-13T18:32:23.197Z,48.20
2022-10-13T18:37:25.091Z,39.55
2022-10-13T18:42:28.920Z,39.33
2022-10-13T18:52:32.670Z,35.90
2022-10-13T18:57:35.253Z,49.05
2022-10-13T19:02:37.244Z,60.03
2022-10-13T19:07:39.313Z,49.00
2022-10-13T19:12:44.365Z,47.90
2022-10-13T19:17:46.286Z,80.53
2022-10-13T19:22:48.164Z,75.22
2022-10-13T19:27:50.235Z,78.88
2022-10-13T19:32:52.356Z,85.22
2022-10-13T19:37:54.316Z,59.03
2022-10-13T19:42:59.069Z,46.33
2022-10-13T19:48:00.952Z,51.47
2022-10-13T19:53:04.071Z,59.03
2022-10-13T19:58:06.586Z,51.55
2022-10-13T20:03:10.285Z,52.60
2022-10-13T20:08:14.083Z,48.22
2022-10-13T20:13:16.047Z,51.88
2022-10-13T20:18:18.006Z,61.67
2022-10-13T20:23:20.005Z,55.55
2022-10-13T20:28:21.948Z,62.17
2022-10-13T20:33:24.285Z,55.75
2022-10-13T20:38:26.898Z,58.40
2022-10-13T20:43:28.773Z,49.83
2022-10-13T20:48:51.494Z,55.40
2022-10-13T20:53:57.960Z,48.13
2022-10-13T20:59:08.602Z,44.60
2022-10-13T21:04:11.412Z,43.92
2022-10-13T21:09:13.228Z,43.60
2022-10-13T21:14:16.940Z,39.95
2022-10-13T21:19:19.088Z,46.55
2022-10-13T21:24:24.068Z,51.42
2022-10-13T21:29:25.957Z,44.88
2022-10-13T21:34:28.116Z,47.03
2022-10-13T21:39:30.053Z,39.28
2022-10-13T21:44:31.907Z,38.45
2022-10-13T21:49:33.888Z,39.67
2022-10-13T21:54:35.933Z,39.15
2022-10-13T21:59:37.968Z,42.97
2022-10-13T22:04:40.091Z,36.88
2022-10-13T22:09:42.038Z,37.88
2022-10-13T22:14:44.059Z,46.70
2022-10-13T22:19:46.116Z,37.42
2022-10-13T22:24:48.091Z,45.75
2022-10-13T22:29:51.818Z,46.08
2022-10-13T22:39:55.895Z,52.05
2022-10-13T22:44:57.904Z,52.20
2022-10-13T22:50:06.245Z,62.08
2022-10-13T22:55:17.061Z,70.03
2022-10-13T23:00:19.236Z,66.18
2022-10-13T23:05:21.413Z,62.25
2022-10-13T23:10:23.950Z,48.25
2022-10-13T23:15:25.930Z,45.90
2022-10-13T23:20:28.149Z,50.38
2022-10-13T23:25:30.226Z,51.70
2022-10-13T23:30:32.237Z,45.88
2022-10-13T23:35:34.205Z,138.98
2022-10-13T23:40:36.461Z,55.85
2022-10-13T23:45:38.502Z,48.95
2022-10-13T23:50:42.621Z,44.40
2022-10-13T23:55:44.695Z,45.65
